createdAt,value
2022-09-05T00:02:58.000Z,4.2
2022-09-05T00:05:49.000Z,4.2
2022-09-05T00:09:57.000Z,4.1
2022-09-05T00:13:42.000Z,4.3
2022-09-05T00:17:17.000Z,4.2
2022-09-05T00:26:23.000Z,4.3
2022-09-05T00:29:55.000Z,4.1
2022-09-05T00:35:17.000Z,4.3
2022-09-05T00:38:51.000Z,4.4
2022-09-05T00:42:24.000Z,4.6
2022-09-05T00:45:56.000Z,4.3
2022-09-05T00:49:29.000Z,4.2
2022-09-05T00:52:20.000Z,4.3
2022-09-05T00:55:53.000Z,4.5
2022-09-05T00:59:25.000Z,4.4
2022-09-05T01:02:58.000Z,4.3
2022-09-05T01:06:31.000Z,4.5
2022-09-05T01:10:03.000Z,4
2022-09-05T01:13:37.000Z,4.8
2022-09-05T01:17:09.000Z,4.3
2022-09-05T01:20:42.000Z,4.6
2022-09-05T01:24:15.000Z,4.2
2022-09-05T01:27:54.000Z,4.7
2022-09-05T01:32:01.000Z,4.8
2022-09-05T01:35:33.000Z,4.3
2022-09-05T01:39:32.000Z,4.4
2022-09-05T01:43:39.000Z,4.3
2022-09-05T01:47:11.000Z,4.7
2022-09-05T01:50:57.000Z,4.9
2022-09-05T01:54:58.000Z,4.5
2022-09-05T01:58:31.000Z,4.4
2022-09-05T02:02:03.000Z,4.6
2022-09-05T02:05:36.000Z,4.6
2022-09-05T02:09:30.000Z,4.4
2022-09-05T02:12:21.000Z,4.8
2022-09-05T02:15:54.000Z,4.2
2022-09-05T02:19:50.000Z,4.6
2022-09-05T02:23:22.000Z,4.7
2022-09-05T02:28:01.000Z,4.7
2022-09-05T02:31:34.000Z,5
2022-09-05T02:35:07.000Z,4.6
2022-09-05T02:38:39.000Z,4.6
2022-09-05T02:48:49.000Z,4.5
2022-09-05T02:59:30.000Z,4.2
2022-09-05T03:03:03.000Z,4.5
2022-09-05T03:05:54.000Z,4.9
2022-09-05T03:09:27.000Z,5.5
2022-09-05T03:12:59.000Z,5
2022-09-05T03:16:32.000Z,5
2022-09-05T03:20:20.000Z,4.6
2022-09-05T03:23:52.000Z,4.5
2022-09-05T03:27:25.000Z,5
2022-09-05T03:30:58.000Z,5
2022-09-05T03:34:33.000Z,5.4
2022-09-05T03:38:05.000Z,5.1
2022-09-05T03:41:38.000Z,5.1
2022-09-05T03:44:29.000Z,5.1
2022-09-05T03:48:02.000Z,5.1
2022-09-05T03:59:20.000Z,4.7
2022-09-05T04:03:49.000Z,4.5
2022-09-05T04:11:54.000Z,4.9
2022-09-05T04:15:28.000Z,4.7
2022-09-05T04:19:01.000Z,4.8
2022-09-05T04:22:39.000Z,4.9
2022-09-05T04:26:11.000Z,4.6
2022-09-05T04:29:44.000Z,5.2
2022-09-05T04:33:17.000Z,4.4
2022-09-05T04:36:20.000Z,5.1
2022-09-05T04:39:53.000Z,4.5
2022-09-05T04:43:38.000Z,4.6
2022-09-05T04:47:16.000Z,4.7
2022-09-05T04:50:52.000Z,4.7
2022-09-05T04:54:30.000Z,4.6
2022-09-05T04:58:02.000Z,4.6
2022-09-05T05:08:05.000Z,5.1
2022-09-05T05:11:38.000Z,4.8
2022-09-05T05:21:45.000Z,4.8
2022-09-05T05:25:18.000Z,4.6
2022-09-05T05:28:09.000Z,4.9
2022-09-05T05:31:50.000Z,4.7
2022-09-05T05:35:23.000Z,5.3
2022-09-05T05:38:59.000Z,5.1
2022-09-05T05:42:49.000Z,7.6
2022-09-05T05:46:22.000Z,16.9
2022-09-05T05:49:55.000Z,10
2022-09-05T05:54:00.000Z,9.9
2022-09-05T05:57:52.000Z,9.7
2022-09-05T06:01:24.000Z,6.5
2022-09-05T06:05:25.000Z,6.1
2022-09-05T06:08:16.000Z,6.1
2022-09-05T06:18:19.000Z,5.6
2022-09-05T06:24:10.000Z,5.3
2022-09-05T06:27:46.000Z,5
2022-09-05T06:31:45.000Z,4.8
2022-09-05T06:35:18.000Z,4.7
2022-09-05T06:38:51.000Z,5
2022-09-05T06:42:30.000Z,4.8
2022-09-05T06:46:09.000Z,5.1
2022-09-05T06:51:29.000Z,4.7
2022-09-05T06:55:19.000Z,4.9
2022-09-05T06:58:10.000Z,6.2
2022-09-05T07:01:43.000Z,6.9
2022-09-05T07:05:26.000Z,5.1
2022-09-05T07:09:15.000Z,5.9
2022-09-05T07:13:01.000Z,5.5
2022-09-05T07:16:34.000Z,5.1
2022-09-05T07:20:09.000Z,8
2022-09-05T07:23:49.000Z,8
2022-09-05T07:27:36.000Z,5.7
2022-09-05T07:32:00.000Z,7.5
2022-09-05T07:35:33.000Z,7.6
2022-09-05T07:38:25.000Z,8.4
2022-09-05T07:42:25.000Z,7
2022-09-05T07:45:58.000Z,6.7
2022-09-05T07:49:31.000Z,5.5
2022-09-05T07:59:10.000Z,5.2
2022-09-05T08:02:42.000Z,4.8
2022-09-05T08:06:20.000Z,5
2022-09-05T08:12:07.000Z,5.4
2022-09-05T08:15:45.000Z,4.3
2022-09-05T08:19:37.000Z,4.4
2022-09-05T08:23:09.000Z,5.1
2022-09-05T08:26:00.000Z,4.8
2022-09-05T08:29:33.000Z,5
2022-09-05T08:33:06.000Z,4.4
2022-09-05T08:36:44.000Z,4.4
2022-09-05T08:40:16.000Z,4.3
2022-09-05T08:43:59.000Z,3.5
2022-09-05T08:50:13.000Z,3.4
2022-09-05T08:53:54.000Z,3.3
2022-09-05T08:57:26.000Z,3.4
2022-09-05T09:01:31.000Z,3.3
2022-09-05T09:06:13.000Z,3.1
2022-09-05T09:09:05.000Z,3.3
2022-09-05T09:12:38.000Z,3.1
2022-09-05T09:16:29.000Z,3
2022-09-05T09:20:08.000Z,3.1
2022-09-05T09:23:41.000Z,2.7
2022-09-05T09:27:17.000Z,2.8
2022-09-05T09:32:05.000Z,2.8
2022-09-05T09:35:38.000Z,3.1
2022-09-05T09:39:11.000Z,2.6
2022-09-05T09:43:04.000Z,2.3
2022-09-05T09:46:37.000Z,2.6
2022-09-05T09:49:28.000Z,2.2
2022-09-05T09:53:00.000Z,2.6
2022-09-05T09:56:34.000Z,2.4
2022-09-05T10:00:06.000Z,2
2022-09-05T10:03:39.000Z,2
2022-09-05T10:14:09.000Z,1.6
2022-09-05T10:18:16.000Z,1.8
2022-09-05T10:22:09.000Z,1.9
2022-09-05T10:26:03.000Z,1.6
2022-09-05T10:29:37.000Z,1.8
2022-09-05T10:37:11.000Z,1.5
2022-09-05T10:40:02.000Z,1.6
2022-09-05T10:43:35.000Z,1.6
2022-09-05T10:47:08.000Z,1.7
2022-09-05T10:50:40.000Z,1.8
2022-09-05T10:54:18.000Z,2.1
2022-09-05T10:57:51.000Z,1.8
2022-09-05T11:04:24.000Z,1.9
2022-09-05T11:08:08.000Z,1.7
2022-09-05T11:11:41.000Z,1.9
2022-09-05T11:15:14.000Z,2
2022-09-05T11:18:47.000Z,2
2022-09-05T11:21:40.000Z,2.1
2022-09-05T11:25:15.000Z,1.6
2022-09-05T11:29:24.000Z,1.4
2022-09-05T11:32:57.000Z,1.8
2022-09-05T11:43:28.000Z,1.5
2022-09-05T11:47:01.000Z,1.7
2022-09-05T11:50:53.000Z,1.6
2022-09-05T11:54:26.000Z,1.7
2022-09-05T11:57:59.000Z,1.6
2022-09-05T12:37:33.000Z,1.6
2022-09-05T12:46:41.000Z,1.6
2022-09-05T12:50:16.000Z,1.5
2022-09-05T12:53:49.000Z,1.4
2022-09-05T12:57:22.000Z,1.5
2022-09-05T13:06:58.000Z,1.5
2022-09-05T13:10:31.000Z,1.5
2022-09-05T13:18:31.000Z,1.4
2022-09-05T13:22:05.000Z,1.4
2022-09-05T13:25:37.000Z,1.4
2022-09-05T13:29:10.000Z,1.4
2022-09-05T13:32:01.000Z,1.3
2022-09-05T13:41:34.000Z,1.3
2022-09-05T13:45:06.000Z,1.5
2022-09-05T13:52:42.000Z,1.5
2022-09-05T13:56:15.000Z,1.3
2022-09-05T13:59:47.000Z,1.6
2022-09-05T14:03:20.000Z,1.3
2022-09-05T14:07:13.000Z,1.5
2022-09-05T14:11:37.000Z,1.4
2022-09-05T14:15:10.000Z,1.5
2022-09-05T14:18:02.000Z,1.1
2022-09-05T14:21:46.000Z,1.3
2022-09-05T14:25:19.000Z,1.5
2022-09-05T14:28:52.000Z,1.2
2022-09-05T14:39:56.000Z,1.4
2022-09-05T14:44:08.000Z,1.4
2022-09-05T14:47:41.000Z,1.4
2022-09-05T14:51:16.000Z,1.3
2022-09-05T14:55:54.000Z,1.4
2022-09-05T15:06:34.000Z,1.4
2022-09-05T15:13:24.000Z,1.5
2022-09-05T15:16:15.000Z,1.4
2022-09-05T15:19:48.000Z,1.6
2022-09-05T15:23:33.000Z,1.4
2022-09-05T15:27:16.000Z,1.6
2022-09-05T15:31:12.000Z,1.5
2022-09-05T15:34:49.000Z,1.2
2022-09-05T15:38:22.000Z,1.3
2022-09-05T15:41:54.000Z,1.3
2022-09-05T15:45:27.000Z,1.4
2022-09-05T15:49:00.000Z,1.1
2022-09-05T15:52:33.000Z,1.3
2022-09-05T15:55:24.000Z,1.2
2022-09-05T15:58:56.000Z,1.4
2022-09-05T16:02:29.000Z,1.2
2022-09-05T16:12:30.000Z,1.4
2022-09-05T16:16:03.000Z,1.3
2022-09-05T16:26:59.000Z,1.2
2022-09-05T16:30:31.000Z,1.4
2022-09-05T16:34:04.000Z,1.9
2022-09-05T16:37:37.000Z,1.9
2022-09-05T16:41:10.000Z,1.8
2022-09-05T16:44:49.000Z,1.6
2022-09-05T16:47:40.000Z,1.6
2022-09-05T16:51:13.000Z,1.8
2022-09-05T16:55:19.000Z,1.8
2022-09-05T16:58:54.000Z,1.7
2022-09-05T17:02:27.000Z,2.2
2022-09-05T17:05:59.000Z,1.6
2022-09-05T17:09:34.000Z,1.6
2022-09-05T17:13:23.000Z,1.6
2022-09-05T17:16:56.000Z,1.6
2022-09-05T17:22:06.000Z,1.6
2022-09-05T17:33:52.000Z,1.9
2022-09-05T17:36:44.000Z,1.8
2022-09-05T17:40:16.000Z,1.9
2022-09-05T17:43:49.000Z,1.7
2022-09-05T17:47:22.000Z,1.6
2022-09-05T17:51:18.000Z,1.9
2022-09-05T17:54:51.000Z,1.9
2022-09-05T17:58:24.000Z,1.8
2022-09-05T18:02:15.000Z,2.1
2022-09-05T18:05:48.000Z,1.7
2022-09-05T18:09:21.000Z,1.7
2022-09-05T18:12:57.000Z,1.7
2022-09-05T18:16:16.000Z,2
2022-09-05T18:19:50.000Z,2
2022-09-05T18:23:23.000Z,1.8
2022-09-05T18:33:58.000Z,1.9
2022-09-05T18:37:36.000Z,1.6
2022-09-05T18:41:13.000Z,1.8
2022-09-05T18:44:47.000Z,2.1
2022-09-05T18:48:25.000Z,1.9
2022-09-05T18:52:26.000Z,2
2022-09-05T18:55:59.000Z,2
2022-09-05T18:59:45.000Z,2
2022-09-05T19:02:36.000Z,2.1
2022-09-05T19:06:40.000Z,1.7
2022-09-05T19:10:29.000Z,1.5
2022-09-05T19:14:33.000Z,1.7
2022-09-05T19:18:42.000Z,1.8
2022-09-05T19:22:32.000Z,1.9
2022-09-05T19:26:44.000Z,2
2022-09-05T19:39:19.000Z,1.9
2022-09-05T19:51:11.000Z,2.2
2022-09-05T19:54:47.000Z,2.3
2022-09-05T19:58:20.000Z,2.3
2022-09-05T20:01:11.000Z,2
2022-09-05T20:04:50.000Z,2.1
2022-09-05T20:08:29.000Z,2.2
2022-09-05T20:12:02.000Z,2.2
2022-09-05T20:15:34.000Z,1.9
2022-09-05T20:19:07.000Z,2.4
2022-09-05T20:22:49.000Z,2
2022-09-05T20:26:22.000Z,2
2022-09-05T20:29:56.000Z,2.3
2022-09-05T20:33:28.000Z,2.1
2022-09-05T20:45:12.000Z,2.4
2022-09-05T20:48:04.000Z,2
2022-09-05T20:57:49.000Z,2.1
2022-09-05T21:01:30.000Z,2.3
2022-09-05T21:05:07.000Z,2.4
2022-09-05T21:08:46.000Z,2.2
2022-09-05T21:12:19.000Z,2.4
2022-09-05T21:15:53.000Z,2.3
2022-09-05T21:19:26.000Z,2.6
2022-09-05T21:22:58.000Z,2.5
2022-09-05T21:26:31.000Z,2.6
2022-09-05T21:30:04.000Z,2.8
2022-09-05T21:32:55.000Z,2.2
2022-09-05T21:36:29.000Z,2.3
2022-09-05T21:40:02.000Z,2.3
2022-09-05T21:43:38.000Z,2.4
2022-09-05T21:51:15.000Z,2.6
2022-09-05T21:57:50.000Z,2.4
2022-09-05T22:03:00.000Z,2.6
2022-09-05T22:06:44.000Z,2.8
2022-09-05T22:10:16.000Z,2.6
2022-09-05T22:14:29.000Z,2.9
2022-09-05T22:18:02.000Z,2.7
2022-09-05T22:29:01.000Z,2.6
2022-09-05T22:32:34.000Z,2.5
2022-09-05T22:36:06.000Z,2.7
2022-09-05T22:39:39.000Z,2.6
2022-09-05T22:43:12.000Z,2.8
2022-09-05T22:46:50.000Z,2.8
2022-09-05T22:50:22.000Z,2.7
2022-09-05T22:53:55.000Z,3.2
2022-09-05T22:57:28.000Z,3.1
2022-09-05T23:01:00.000Z,3.2
2022-09-05T23:04:33.000Z,2.7
2022-09-05T23:07:24.000Z,3
2022-09-05T23:10:57.000Z,3.1
2022-09-05T23:14:30.000Z,2.8
2022-09-05T23:18:02.000Z,3.1
2022-09-05T23:21:35.000Z,2.7
2022-09-05T23:25:08.000Z,2.8
2022-09-05T23:28:40.000Z,3
2022-09-05T23:32:13.000Z,2.9
2022-09-05T23:35:45.000Z,3
2022-09-05T23:39:18.000Z,2.9
2022-09-05T23:42:51.000Z,3.3
2022-09-05T23:45:42.000Z,3
2022-09-05T23:49:14.000Z,3.5
2022-09-05T23:52:47.000Z,3.2
2022-09-05T23:56:20.000Z,3.4
2022-09-05T23:59:52.000Z,3.1
